Fernando de Noronha, Brazil
Current Conditions -  °F | °C
As of 9:00 AM on Sunday 21 Dec 2014 (Local Time) from SBFN Reporting Station
Scattered Clouds Scattered Clouds  
Wind Chill: 82°   Ceiling: Unl
Heat Index: 87°   Visibility: 6mi
Dew Point: 72°   Wind: 17mph
Humidity: 70%   Direction: 130°SE
Pressure: 29.94"   Gusts: NA
Location:  3.86°S, 32.44°W
Report Text: SBFN 211100Z 13015KT 9999 SCT019 28/22 Q1014
Loading
Personal Weather Stations






























Interactive Weather Map New forecast layout! Learn more

10-Day Weather Forecast

Advertisements
Track Severe Weather on mobile